Time;durP1;ratioP1;P1;durP2;ratioP2;P2;SDS_P1;SDS_P2;PMS_P1;PMS_P2;Temp;Humidity;BMP_temperature;BMP_pressure;BME280_temperature;BME280_humidity;BME280_pressure;Samples;Min_cycle;Max_cycle;Signal;HPM_P1;HPM_P2
2021/01/08 00:00:18;;;;;;;3.83;1.30;;;;;;;1.11;92.36;98578.53;3470097;28;20056;-47
2021/01/08 00:02:00;;;;;;;2.42;1.83;;;;;;;1.10;92.40;98585.28;3469575;28;20066;-47
2021/01/08 00:03:42;;;;;;;2.85;2.03;;;;;;;1.09;92.41;98588.69;3470891;28;20075;-46
2021/01/08 00:05:23;;;;;;;2.47;1.95;;;;;;;1.09;92.33;98596.34;3468945;28;20060;-46
2021/01/08 00:07:06;;;;;;;4.22;2.50;;;;;;;1.10;92.23;98584.44;3469252;28;20053;-47
2021/01/08 00:08:48;;;;;;;4.10;2.40;;;;;;;1.11;92.36;98591.28;3469846;28;20507;-48
2021/01/08 00:10:30;;;;;;;2.38;1.67;;;;;;;1.11;92.76;98596.41;3469241;28;20049;-46
2021/01/08 00:12:11;;;;;;;2.10;1.40;;;;;;;1.13;92.34;98594.75;3470032;28;20524;-48
2021/01/08 00:13:53;;;;;;;3.33;2.05;;;;;;;1.12;92.23;98596.41;3470408;28;20053;-46
2021/01/08 00:15:35;;;;;;;3.30;1.83;;;;;;;1.11;91.85;98606.63;3469447;28;20092;-46
2021/01/08 00:17:17;;;;;;;3.40;2.15;;;;;;;1.12;91.70;98600.66;3470549;28;20079;-46
2021/01/08 00:19:00;;;;;;;3.03;2.03;;;;;;;1.12;91.80;98600.66;3469353;28;20061;-46
2021/01/08 00:20:41;;;;;;;3.78;2.55;;;;;;;1.11;91.95;98592.16;3469592;28;20057;-46
2021/01/08 00:22:24;;;;;;;3.80;2.30;;;;;;;1.10;91.99;98608.28;3471048;28;20065;-46
2021/01/08 00:24:07;;;;;;;3.90;2.20;;;;;;;1.10;91.96;98622.75;3469023;28;20115;-46
2021/01/08 00:25:51;;;;;;;2.33;1.85;;;;;;;1.09;91.73;98609.09;3469563;28;20064;-46
2021/01/08 00:27:33;;;;;;;2.88;1.75;;;;;;;1.12;91.63;98608.34;3469971;28;20061;-46
2021/01/08 00:29:16;;;;;;;3.08;1.80;;;;;;;1.12;91.46;98609.19;3469198;28;20053;-46
2021/01/08 00:31:00;;;;;;;2.90;1.80;;;;;;;1.12;91.60;98610.88;3469485;28;20046;-46
2021/01/08 00:32:42;;;;;;;2.50;1.73;;;;;;;1.11;91.15;98607.47;3470413;28;20140;-46
2021/01/08 00:34:24;;;;;;;3.45;2.30;;;;;;;1.11;90.76;98610.03;3469787;28;20450;-46
2021/01/08 00:36:06;;;;;;;2.67;1.67;;;;;;;1.11;90.83;98612.59;3469433;28;20044;-47
2021/01/08 00:37:49;;;;;;;2.50;1.83;;;;;;;1.10;90.90;98615.06;3469912;28;20136;-47
2021/01/08 00:39:32;;;;;;;2.65;1.77;;;;;;;1.10;90.41;98615.06;3469274;28;20312;-48
2021/01/08 00:41:13;;;;;;;2.97;1.65;;;;;;;1.10;90.17;98612.53;3470083;28;20056;-47
2021/01/08 00:42:55;;;;;;;4.00;1.55;;;;;;;1.11;89.69;98611.72;3467033;28;20580;-47
2021/01/08 00:44:37;;;;;;;3.30;2.08;;;;;;;1.12;89.68;98614.28;3469130;28;20061;-47
2021/01/08 00:46:18;;;;;;;2.65;1.48;;;;;;;1.16;89.25;98612.75;3470011;28;20045;-47
2021/01/08 00:48:00;;;;;;;3.38;1.83;;;;;;;1.15;89.67;98611.00;3469420;28;20497;-47
2021/01/08 00:49:42;;;;;;;1.95;1.15;;;;;;;1.14;89.59;98619.47;3469099;28;20063;-48
2021/01/08 00:51:23;;;;;;;2.50;1.42;;;;;;;1.14;89.67;98620.34;3470109;28;20084;-47
2021/01/08 00:53:06;;;;;;;2.75;1.30;;;;;;;1.13;88.55;98616.03;3469088;28;20095;-47
2021/01/08 00:54:49;;;;;;;1.92;1.50;;;;;;;1.16;88.30;98631.47;3469446;28;20050;-49
2021/01/08 00:56:32;;;;;;;2.03;1.33;;;;;;;1.17;88.21;98627.22;3469098;28;20064;-47
2021/01/08 00:58:14;;;;;;;1.90;1.58;;;;;;;1.18;87.46;98634.09;3468525;28;20136;-47
2021/01/08 00:59:57;;;;;;;4.70;1.60;;;;;;;1.15;87.83;98628.88;3470639;28;20049;-47
2021/01/08 01:01:39;;;;;;;5.78;1.70;;;;;;;1.17;87.65;98628.09;3468791;28;20054;-47
2021/01/08 01:03:23;;;;;;;2.38;1.60;;;;;;;1.18;87.97;98636.66;3468875;28;20072;-45
2021/01/08 01:05:07;;;;;;;3.38;1.90;;;;;;;1.17;88.26;98647.66;3469483;28;20061;-46
2021/01/08 01:06:49;;;;;;;3.35;1.95;;;;;;;1.16;88.07;98633.19;3469018;28;20192;-47
2021/01/08 01:08:31;;;;;;;3.05;1.58;;;;;;;1.15;88.54;98639.94;3468883;28;20060;-47
2021/01/08 01:10:14;;;;;;;3.33;1.90;;;;;;;1.15;88.54;98639.09;3469763;28;20514;-50
2021/01/08 01:11:56;;;;;;;3.35;1.92;;;;;;;1.13;88.84;98636.47;3469192;28;20057;-49
2021/01/08 01:13:38;;;;;;;3.65;2.17;;;;;;;1.12;88.99;98641.53;3469555;28;20052;-48
2021/01/08 01:15:20;;;;;;;3.30;2.00;;;;;;;1.11;89.24;98645.78;3469232;28;20057;-47
2021/01/08 01:17:03;;;;;;;1.67;1.23;;;;;;;1.14;88.10;98645.91;3468926;28;20045;-47
2021/01/08 01:18:46;;;;;;;3.58;1.75;;;;;;;1.17;87.89;98647.66;3470209;28;20053;-47
2021/01/08 01:20:28;;;;;;;2.42;1.55;;;;;;;1.18;88.06;98650.28;3468175;28;20060;-49
2021/01/08 01:22:18;;;;;;;3.03;1.75;;;;;;;1.17;88.76;98652.78;3468863;28;20464;-48
2021/01/08 01:24:00;;;;;;;2.20;1.60;;;;;;;1.18;88.50;98655.38;3469796;28;20050;-48
2021/01/08 01:25:41;;;;;;;1.92;1.40;;;;;;;1.19;88.30;98658.81;3468452;28;20046;-48
2021/01/08 01:27:23;;;;;;;3.63;1.90;;;;;;;1.20;88.01;98664.81;3468456;28;20045;-48
2021/01/08 01:29:05;;;;;;;2.90;1.60;;;;;;;1.18;88.32;98663.06;3469288;28;20103;-50
2021/01/08 01:30:47;;;;;;;2.72;1.50;;;;;;;1.19;87.93;98674.13;3468798;28;20050;-46
2021/01/08 01:32:29;;;;;;;4.22;1.45;;;;;;;1.24;88.11;98664.94;3468868;28;20473;-46
2021/01/08 01:34:10;;;;;;;3.03;1.58;;;;;;;1.23;88.18;98657.22;3469476;28;20045;-47
2021/01/08 01:35:53;;;;;;;2.35;1.50;;;;;;;1.24;88.03;98667.50;3468687;28;20136;-48
2021/01/08 01:37:35;;;;;;;3.83;1.77;;;;;;;1.22;88.43;98660.59;3468975;28;20055;-47
2021/01/08 01:39:18;;;;;;;3.42;1.80;;;;;;;1.24;88.07;98666.63;3468798;28;20053;-47
2021/01/08 01:41:00;;;;;;;2.55;1.45;;;;;;;1.24;88.05;98658.97;3468386;28;20049;-48
2021/01/08 01:42:41;;;;;;;3.70;1.95;;;;;;;1.26;87.75;98665.00;3468363;28;20056;-47
2021/01/08 01:44:23;;;;;;;2.78;1.70;;;;;;;1.28;88.25;98674.47;3468440;28;20557;-48
2021/01/08 01:46:05;;;;;;;4.43;1.45;;;;;;;1.29;88.09;98670.22;3471866;28;20056;-47
2021/01/08 01:47:47;;;;;;;2.97;1.85;;;;;;;1.25;89.03;98668.34;3468454;28;20052;-47
2021/01/08 01:49:29;;;;;;;2.63;1.67;;;;;;;1.25;88.58;98666.69;3468664;28;20058;-46
2021/01/08 01:51:11;;;;;;;2.60;1.80;;;;;;;1.24;88.92;98671.75;3470031;28;20545;-47
2021/01/08 01:52:53;;;;;;;3.38;2.00;;;;;;;1.24;89.31;98669.19;3467873;28;20045;-46
2021/01/08 01:54:36;;;;;;;3.00;1.70;;;;;;;1.23;88.68;98670.88;3468049;28;20049;-47
2021/01/08 01:56:18;;;;;;;3.30;2.22;;;;;;;1.25;89.01;98673.47;3469167;28;20046;-47
2021/01/08 01:58:02;;;;;;;3.67;1.40;;;;;;;1.26;88.93;98673.53;3468232;28;20686;-46
2021/01/08 01:59:44;;;;;;;3.88;2.03;;;;;;;1.27;88.65;98675.28;3469199;28;20057;-47
2021/01/08 02:01:26;;;;;;;2.67;1.50;;;;;;;1.31;88.03;98676.25;3455499;28;20637;-48
2021/01/08 02:03:16;;;;;;;2.70;1.85;;;;;;;1.30;88.27;98685.59;3456852;28;20068;-47
2021/01/08 02:05:02;;;;;;;2.42;1.73;;;;;;;1.30;87.77;98683.06;3460238;28;20049;-49
2021/01/08 02:06:46;;;;;;;3.40;1.42;;;;;;;1.34;87.91;98673.81;3469915;28;20061;-47
2021/01/08 02:08:29;;;;;;;3.15;1.73;;;;;;;1.32;88.07;98672.88;3467868;28;20102;-46
2021/01/08 02:10:12;;;;;;;4.13;2.08;;;;;;;1.31;88.15;98686.47;3468818;28;20081;-46
2021/01/08 02:11:57;;;;;;;2.95;1.70;;;;;;;1.30;88.15;98690.72;3468892;28;20081;-46
2021/01/08 02:13:41;;;;;;;5.25;3.10;;;;;;;1.29;88.15;98683.00;3468270;28;20045;-46
2021/01/08 02:15:29;;;;;;;4.03;2.05;;;;;;;1.31;88.22;98681.34;3468372;28;20081;-46
2021/01/08 02:17:12;;;;;;;4.50;2.30;;;;;;;1.30;88.34;98687.25;3469007;28;20138;-47
2021/01/08 02:18:55;;;;;;;4.85;3.28;;;;;;;1.30;88.47;98682.16;3468462;28;20057;-47
2021/01/08 02:20:37;;;;;;;4.60;2.80;;;;;;;1.27;88.60;98690.59;3468175;28;20407;-47
2021/01/08 02:22:24;;;;;;;7.15;2.85;;;;;;;1.27;88.72;98684.63;3469208;28;20449;-46
2021/01/08 02:24:13;;;;;;;6.05;2.88;;;;;;;1.25;88.45;98692.25;3467918;28;20144;-47
2021/01/08 02:25:57;;;;;;;5.20;2.95;;;;;;;1.26;88.36;98691.41;3467999;28;20045;-48
2021/01/08 02:27:40;;;;;;;3.67;2.00;;;;;;;1.30;87.68;98700.94;3469461;28;20503;-48
2021/01/08 02:29:24;;;;;;;2.95;1.48;;;;;;;1.31;87.56;98701.78;3468474;28;20549;-46
2021/01/08 02:31:06;;;;;;;3.55;2.13;;;;;;;1.32;87.63;98694.19;3469403;28;20053;-46
2021/01/08 02:32:48;;;;;;;4.55;1.83;;;;;;;1.32;87.65;98693.31;3468008;28;20110;-48
2021/01/08 02:34:31;;;;;;;2.63;1.83;;;;;;;1.31;87.74;98697.53;3468059;28;20081;-48
2021/01/08 02:36:13;;;;;;;4.20;2.30;;;;;;;1.30;88.53;98698.38;3469461;28;20418;-46
2021/01/08 02:37:56;;;;;;;3.88;2.50;;;;;;;1.29;88.62;98703.44;3468937;28;20053;-46
2021/01/08 02:39:39;;;;;;;6.18;3.05;;;;;;;1.27;88.56;98711.03;3468071;28;20067;-48
2021/01/08 02:41:24;;;;;;;4.70;2.33;;;;;;;1.21;89.22;98715.06;3468555;28;20588;-49
2021/01/08 02:43:06;;;;;;;4.30;2.70;;;;;;;1.25;89.39;98719.44;3465619;28;20538;-48
2021/01/08 02:44:50;;;;;;;2.88;2.30;;;;;;;1.26;89.12;98714.41;3468229;28;20053;-46
2021/01/08 02:46:32;;;;;;;5.50;3.22;;;;;;;1.26;89.28;98719.50;3467412;28;20057;-46
2021/01/08 02:48:15;;;;;;;5.05;2.90;;;;;;;1.27;89.17;98721.25;3467710;28;20088;-47
2021/01/08 02:49:57;;;;;;;5.50;3.28;;;;;;;1.28;89.43;98712.78;3469327;28;20053;-48
2021/01/08 02:51:39;;;;;;;5.82;3.53;;;;;;;1.29;89.18;98718.75;3467760;28;20414;-49
2021/01/08 02:53:25;;;;;;;4.03;2.35;;;;;;;1.27;89.38;98711.03;3467910;28;20103;-48
2021/01/08 02:55:10;;;;;;;3.72;2.20;;;;;;;1.29;88.95;98721.31;3468698;28;20084;-48
2021/01/08 02:56:55;;;;;;;3.58;2.30;;;;;;;1.33;88.70;98718.03;3468319;28;20046;-48
2021/01/08 02:58:40;;;;;;;4.72;2.55;;;;;;;1.36;88.52;98729.22;3467659;28;20045;-49
2021/01/08 03:00:22;;;;;;;3.70;2.28;;;;;;;1.37;88.53;98724.97;3468722;28;20049;-46
2021/01/08 03:02:05;;;;;;;5.32;3.00;;;;;;;1.36;88.96;98721.56;3467814;28;20065;-45
2021/01/08 03:03:47;;;;;;;3.33;1.85;;;;;;;1.36;88.91;98741.16;3467526;28;20421;-46
2021/01/08 03:05:30;;;;;;;3.60;2.58;;;;;;;1.35;88.95;98735.19;3468671;28;20089;-46
2021/01/08 03:07:14;;;;;;;4.43;2.58;;;;;;;1.38;88.60;98726.72;3467594;28;20046;-47
2021/01/08 03:08:56;;;;;;;5.20;2.83;;;;;;;1.37;88.76;98733.53;3469295;28;20098;-49
2021/01/08 03:10:38;;;;;;;3.58;2.33;;;;;;;1.37;89.05;98742.88;3468090;28;20103;-48
2021/01/08 03:12:21;;;;;;;4.97;2.95;;;;;;;1.38;88.76;98736.97;3466691;28;20053;-47
2021/01/08 03:14:05;;;;;;;4.85;3.00;;;;;;;1.38;88.73;98754.84;3469018;28;20061;-48
2021/01/08 03:15:46;;;;;;;5.80;2.40;;;;;;;1.40;88.65;98747.25;3467664;28;20057;-47
2021/01/08 03:17:29;;;;;;;4.43;2.30;;;;;;;1.42;88.37;98760.94;3467774;28;20042;-46
2021/01/08 03:19:11;;;;;;;3.63;2.50;;;;;;;1.41;88.70;98746.41;3468653;28;20435;-48
2021/01/08 03:20:53;;;;;;;4.22;2.65;;;;;;;1.41;88.71;98748.97;3467999;28;20049;-48
2021/01/08 03:22:34;;;;;;;3.67;2.67;;;;;;;1.41;88.39;98756.63;3467516;28;20338;-47
2021/01/08 03:24:16;;;;;;;3.53;2.25;;;;;;;1.39;88.70;98746.38;3468887;28;20064;-46
2021/01/08 03:25:57;;;;;;;2.83;2.25;;;;;;;1.39;88.60;98756.59;3467723;28;20057;-46
2021/01/08 03:27:40;;;;;;;5.60;2.90;;;;;;;1.42;88.40;98760.94;3467885;28;20045;-48
2021/01/08 03:29:23;;;;;;;8.18;2.75;;;;;;;1.38;88.38;98762.50;3467910;28;20461;-46
2021/01/08 03:31:05;;;;;;;3.80;2.20;;;;;;;1.40;88.38;98760.00;3467712;28;20049;-48
2021/01/08 03:32:47;;;;;;;4.85;2.72;;;;;;;1.42;88.53;98761.78;3468252;28;20060;-47
2021/01/08 03:34:29;;;;;;;3.90;2.50;;;;;;;1.38;88.68;98765.91;3467315;28;20495;-47
2021/01/08 03:36:10;;;;;;;5.28;2.75;;;;;;;1.38;88.56;98762.50;3467820;28;20049;-50
2021/01/08 03:37:52;;;;;;;5.07;2.85;;;;;;;1.37;88.50;98761.66;3468341;28;20396;-48
2021/01/08 03:39:33;;;;;;;5.18;2.95;;;;;;;1.39;88.49;98761.72;3467497;28;20057;-47
2021/01/08 03:41:15;;;;;;;4.65;3.00;;;;;;;1.39;88.68;98766.81;3467936;28;20052;-46
2021/01/08 03:42:57;;;;;;;4.70;2.70;;;;;;;1.38;88.90;98762.50;3468210;28;20049;-47
2021/01/08 03:44:39;;;;;;;6.40;3.22;;;;;;;1.38;89.02;98770.19;3469978;28;20049;-47
2021/01/08 03:46:21;;;;;;;6.57;3.75;;;;;;;1.38;88.93;98777.84;3470736;28;20060;-47
2021/01/08 03:48:04;;;;;;;4.97;2.83;;;;;;;1.37;89.26;98771.88;3468929;28;20049;-47
2021/01/08 03:49:45;;;;;;;4.53;3.17;;;;;;;1.39;89.37;98777.03;3469914;28;20080;-46
2021/01/08 03:51:27;;;;;;;5.82;3.40;;;;;;;1.39;89.40;98774.47;3470704;28;20049;-47
2021/01/08 03:53:09;;;;;;;5.05;3.13;;;;;;;1.40;89.43;98781.31;3470466;28;20057;-48
2021/01/08 03:54:51;;;;;;;5.32;3.42;;;;;;;1.41;89.50;98784.72;3469835;28;20511;-48
2021/01/08 03:56:33;;;;;;;6.55;3.90;;;;;;;1.41;89.70;98785.63;3470241;28;20498;-47
2021/01/08 03:58:15;;;;;;;4.53;2.78;;;;;;;1.41;89.75;98798.41;3469052;28;20049;-47
2021/01/08 03:59:57;;;;;;;6.68;3.83;;;;;;;1.43;89.64;98788.25;3469483;28;20045;-47
2021/01/08 04:01:38;;;;;;;5.57;3.30;;;;;;;1.44;89.70;98777.19;3470463;28;20076;-46
2021/01/08 04:03:20;;;;;;;4.50;3.13;;;;;;;1.45;89.61;98782.34;3468180;28;20490;-46
2021/01/08 04:05:03;;;;;;;7.55;3.45;;;;;;;1.45;89.57;98778.94;3469930;28;20176;-47
2021/01/08 04:06:44;;;;;;;5.75;3.20;;;;;;;1.49;89.58;98775.66;3469643;28;20113;-48
2021/01/08 04:08:26;;;;;;;6.25;3.58;;;;;;;1.50;89.38;98778.28;3469543;28;20065;-47
2021/01/08 04:10:09;;;;;;;5.43;3.10;;;;;;;1.50;89.65;98780.81;3471219;28;20053;-48
2021/01/08 04:11:50;;;;;;;5.55;3.88;;;;;;;1.49;89.54;98781.63;3468666;28;20064;-46
2021/01/08 04:13:33;;;;;;;8.52;3.20;;;;;;;1.51;89.45;98789.34;3469351;28;20103;-46
2021/01/08 04:15:14;;;;;;;10.10;4.43;;;;;;;1.50;89.54;98788.50;3470316;28;20057;-46
2021/01/08 04:17:00;;;;;;;8.00;4.22;;;;;;;1.51;89.67;98803.03;3469398;28;20064;-46
2021/01/08 04:18:42;;;;;;;9.38;4.40;;;;;;;1.52;89.54;98809.00;3469698;28;20432;-47
2021/01/08 04:20:24;;;;;;;8.07;4.28;;;;;;;1.54;89.68;98790.34;3470358;28;20049;-46
2021/01/08 04:22:06;;;;;;;6.90;4.15;;;;;;;1.56;89.53;98798.06;3469734;28;20103;-47
2021/01/08 04:23:47;;;;;;;7.72;4.72;;;;;;;1.58;89.44;98801.53;3469671;28;20104;-47
2021/01/08 04:25:29;;;;;;;7.47;4.43;;;;;;;1.59;89.61;98813.50;3456464;28;20056;-48
2021/01/08 04:27:11;;;;;;;9.65;5.57;;;;;;;1.58;89.42;98809.19;3467098;28;20205;-49
2021/01/08 04:28:53;;;;;;;9.25;5.03;;;;;;;1.58;89.78;98814.31;3469607;28;20425;-47
2021/01/08 04:30:35;;;;;;;9.23;5.85;;;;;;;1.55;89.80;98819.34;3469636;28;20050;-47
2021/01/08 04:32:17;;;;;;;8.93;5.75;;;;;;;1.56;89.82;98828.72;3469332;28;20111;-47
2021/01/08 04:33:59;;;;;;;11.25;6.82;;;;;;;1.56;89.80;98814.28;3470501;28;20077;-48
2021/01/08 04:35:41;;;;;;;9.80;5.38;;;;;;;1.59;89.70;98818.63;3469132;28;20235;-46
2021/01/08 04:37:22;;;;;;;9.90;6.28;;;;;;;1.58;89.92;98816.88;3469766;28;20102;-46
2021/01/08 04:39:05;;;;;;;9.55;6.45;;;;;;;1.56;90.12;98819.41;3470567;28;20053;-46
2021/01/08 04:40:48;;;;;;;10.27;5.72;;;;;;;1.57;90.06;98807.47;3470855;28;20084;-46
2021/01/08 04:42:33;;;;;;;12.38;6.65;;;;;;;1.56;89.86;98821.94;3467601;28;20048;-45
2021/01/08 04:44:16;;;;;;;16.13;9.10;;;;;;;1.57;90.19;98833.03;3470031;28;20080;-47
2021/01/08 04:46:02;;;;;;;10.90;5.78;;;;;;;1.57;90.10;98830.47;3467771;28;20053;-48
2021/01/08 04:47:46;;;;;;;13.48;6.20;;;;;;;1.56;90.02;98867.97;3469037;28;20084;-48
2021/01/08 04:49:33;;;;;;;14.73;6.53;;;;;;;1.58;89.85;98851.78;3469980;28;20049;-47
2021/01/08 04:51:16;;;;;;;14.63;7.25;;;;;;;1.58;90.17;98827.09;3469110;28;20091;-48
2021/01/08 04:52:57;;;;;;;11.82;6.75;;;;;;;1.58;90.27;98836.47;3469443;28;20049;-48
2021/01/08 04:54:41;;;;;;;15.15;7.00;;;;;;;1.56;89.85;98861.97;3468786;28;20057;-47
2021/01/08 04:56:26;;;;;;;18.65;7.25;;;;;;;1.57;89.89;98835.59;3467847;28;20052;-48
2021/01/08 04:58:11;;;;;;;14.27;7.15;;;;;;;1.55;90.04;98838.09;3468992;28;20127;-48
2021/01/08 04:59:54;;;;;;;14.00;8.10;;;;;;;1.53;90.11;98844.84;3469410;28;20470;-48
2021/01/08 05:01:36;;;;;;;9.70;5.95;;;;;;;1.54;89.94;98845.69;3469207;28;20049;-47
2021/01/08 05:03:18;;;;;;;15.43;7.57;;;;;;;1.53;90.02;98841.38;3470700;28;20506;-47
2021/01/08 05:05:00;;;;;;;14.13;7.65;;;;;;;1.55;89.79;98855.13;3468932;28;20430;-48
2021/01/08 05:06:42;;;;;;;19.05;10.27;;;;;;;1.54;90.26;98850.81;3469318;28;20041;-47
2021/01/08 05:08:24;;;;;;;17.80;9.05;;;;;;;1.54;89.86;98853.38;3470190;28;20045;-47
2021/01/08 05:10:07;;;;;;;18.02;9.23;;;;;;;1.53;90.12;98847.41;3469361;28;20056;-48
2021/01/08 05:11:49;;;;;;;18.80;9.82;;;;;;;1.54;90.07;98849.13;3468809;28;20134;-47
2021/01/08 05:13:33;;;;;;;15.98;7.80;;;;;;;1.53;90.06;98849.06;3470286;28;20446;-46
2021/01/08 05:15:16;;;;;;;15.50;8.10;;;;;;;1.53;89.72;98847.41;3467709;28;20434;-47
2021/01/08 05:16:58;;;;;;;16.42;8.88;;;;;;;1.53;89.87;98855.06;3468579;28;20502;-48
2021/01/08 05:18:40;;;;;;;18.30;8.45;;;;;;;1.55;89.53;98837.22;3469964;28;20053;-48
2021/01/08 05:20:23;;;;;;;15.65;6.93;;;;;;;1.55;89.82;98834.69;3468718;28;20119;-48
2021/01/08 05:22:05;;;;;;;21.15;9.68;;;;;;;1.53;89.59;98844.84;3470037;28;20045;-47
2021/01/08 05:23:52;;;;;;;15.43;7.78;;;;;;;1.53;89.77;98839.72;3469206;28;20049;-47
2021/01/08 05:25:34;;;;;;;17.73;9.32;;;;;;;1.53;89.65;98846.50;3468429;28;20049;-47
2021/01/08 05:27:27;;;;;;;17.48;8.95;;;;;;;1.52;89.77;98839.66;3471072;28;20764;-47
2021/01/08 05:29:11;;;;;;;22.98;11.13;;;;;;;1.52;90.14;98847.34;3469088;28;20050;-48
2021/01/08 05:30:56;;;;;;;23.90;11.93;;;;;;;1.50;89.99;98857.50;3468304;28;20053;-49
2021/01/08 05:32:37;;;;;;;19.45;10.70;;;;;;;1.49;90.24;98849.78;3470409;28;20049;-45
2021/01/08 05:34:25;;;;;;;17.42;9.52;;;;;;;1.44;90.13;98852.19;3468134;28;20057;-46
2021/01/08 05:36:10;;;;;;;25.42;12.10;;;;;;;1.51;90.17;98863.47;3468772;28;20434;-48
2021/01/08 05:37:54;;;;;;;26.38;11.45;;;;;;;1.50;90.34;98882.19;3469460;28;20057;-47
2021/01/08 05:39:37;;;;;;;25.63;12.60;;;;;;;1.49;90.21;98865.97;3468712;28;20103;-49
2021/01/08 05:41:22;;;;;;;23.30;10.63;;;;;;;1.50;90.08;98874.53;3468238;28;20048;-49
2021/01/08 05:43:05;;;;;;;26.75;12.50;;;;;;;1.50;89.99;98895.84;3468005;28;20381;-46
2021/01/08 05:44:47;;;;;;;21.98;10.55;;;;;;;1.49;90.05;98883.84;3468433;28;20123;-49
2021/01/08 05:46:34;;;;;;;22.98;11.23;;;;;;;1.49;90.19;98888.97;3468613;28;20473;-46
2021/01/08 05:48:17;;;;;;;28.73;12.85;;;;;;;1.48;89.94;98887.25;3469486;28;20053;-46
2021/01/08 05:50:00;;;;;;;27.75;12.25;;;;;;;1.48;89.94;98894.91;3468754;28;20480;-47
2021/01/08 05:51:43;;;;;;;27.05;11.82;;;;;;;1.48;90.00;98891.50;3468932;28;20072;-45
2021/01/08 05:53:26;;;;;;;25.15;12.65;;;;;;;1.47;90.05;98892.28;3468620;28;20053;-46
2021/01/08 05:55:11;;;;;;;28.80;13.25;;;;;;;1.45;90.20;98891.38;3468211;28;20067;-46
2021/01/08 05:56:53;;;;;;;26.77;11.20;;;;;;;1.46;90.31;98891.44;3469266;28;20049;-46
2021/01/08 05:58:35;;;;;;;23.65;12.20;;;;;;;1.48;89.72;98896.59;3468138;28;20053;-46
2021/01/08 06:00:18;;;;;;;26.70;12.85;;;;;;;1.46;90.14;98904.22;3468408;28;20077;-46
2021/01/08 06:02:01;;;;;;;27.90;13.80;;;;;;;1.47;90.25;98907.63;3469248;28;20049;-46
2021/01/08 06:03:45;;;;;;;25.83;12.23;;;;;;;1.48;90.08;98911.94;3468495;28;20060;-47
2021/01/08 06:05:29;;;;;;;26.58;13.05;;;;;;;1.47;89.89;98917.84;3466951;28;20386;-46
2021/01/08 06:07:18;;;;;;;26.35;13.20;;;;;;;1.45;89.84;98916.94;3469519;28;20061;-45
2021/01/08 06:09:01;;;;;;;31.60;13.98;;;;;;;1.43;89.87;98916.00;3468217;28;20056;-45
2021/01/08 06:10:44;;;;;;;32.50;15.07;;;;;;;1.41;90.41;98928.72;3468210;28;20425;-46
2021/01/08 06:12:26;;;;;;;34.17;16.40;;;;;;;1.41;90.45;98918.50;3467736;28;20484;-46
2021/01/08 06:14:10;;;;;;;37.20;15.93;;;;;;;1.38;90.34;98924.34;3468385;28;20068;-45
2021/01/08 06:15:52;;;;;;;;;;;;;;;1.37;90.54;98914.97;3470109;28;20060;-46
2021/01/08 06:17:37;;;;;;;29.60;12.90;;;;;;;1.37;89.98;98927.72;3467561;28;20405;-46
2021/01/08 06:19:20;;;;;;;28.42;11.10;;;;;;;1.40;90.43;98926.97;3468076;28;20077;-45
2021/01/08 06:21:06;;;;;;;34.13;15.63;;;;;;;1.38;90.18;98933.72;3468762;28;20057;-46
2021/01/08 06:22:48;;;;;;;30.75;12.43;;;;;;;1.40;90.24;98949.97;3467039;28;20502;-45
2021/01/08 06:24:29;;;;;;;36.78;15.52;;;;;;;1.37;90.47;98945.63;3467873;28;20418;-45
2021/01/08 06:26:13;;;;;;;26.63;13.07;;;;;;;1.33;90.37;98946.28;3469399;28;20049;-46
2021/01/08 06:27:57;;;;;;;36.90;16.63;;;;;;;1.35;90.18;98952.38;3468307;28;20066;-46
2021/01/08 06:29:48;;;;;;;27.98;14.02;;;;;;;1.35;90.25;98948.91;3467906;28;20056;-45
2021/01/08 06:31:36;;;;;;;34.55;15.10;;;;;;;1.33;90.56;98959.06;3468906;28;20620;-46
2021/01/08 06:33:28;;;;;;;31.42;13.98;;;;;;;1.34;90.13;98954.84;3468121;28;20052;-46
2021/01/08 06:35:12;;;;;;;38.53;14.43;;;;;;;1.31;90.77;98965.81;3468548;28;20046;-48
2021/01/08 06:37:06;;;;;;;37.38;15.20;;;;;;;1.29;90.29;98961.47;3455280;28;20054;-48
2021/01/08 06:38:50;;;;;;;35.47;15.85;;;;;;;1.28;90.63;98965.72;3466386;28;20152;-48
2021/01/08 06:40:41;;;;;;;30.73;11.95;;;;;;;1.29;90.42;98971.69;3468166;28;20050;-46
2021/01/08 06:42:27;;;;;;;33.58;13.93;;;;;;;1.28;90.19;98969.94;3459283;28;20072;-48
2021/01/08 06:44:14;;;;;;;36.55;15.00;;;;;;;1.29;90.21;98979.34;3468339;28;20120;-45
2021/01/08 06:46:01;;;;;;;34.83;16.70;;;;;;;1.26;90.33;98977.53;3468969;28;20061;-50
2021/01/08 06:47:45;;;;;;;33.72;13.70;;;;;;;1.25;90.50;98982.56;3469220;28;20107;-45
2021/01/08 06:49:33;;;;;;;31.98;15.07;;;;;;;1.24;90.28;98975.75;3468208;28;20136;-45
2021/01/08 06:51:24;;;;;;;33.15;15.02;;;;;;;1.25;90.05;98978.34;3467865;28;20041;-45
2021/01/08 06:53:11;;;;;;;26.80;12.25;;;;;;;1.26;90.34;98989.44;3455540;28;20107;-46
2021/01/08 06:54:55;;;;;;;29.67;11.82;;;;;;;1.26;90.31;98985.19;3465174;28;20150;-46
2021/01/08 06:56:38;;;;;;;31.67;15.23;;;;;;;1.27;89.94;98986.09;3467830;28;20084;-45
2021/01/08 06:58:20;;;;;;;32.65;15.70;;;;;;;1.26;90.31;98990.31;3468673;28;20056;-45
2021/01/08 07:00:05;;;;;;;32.28;15.82;;;;;;;1.26;90.02;98990.31;3468326;28;20049;-48
2021/01/08 07:01:54;;;;;;;28.42;12.30;;;;;;;1.27;90.05;98988.66;3477738;28;20057;-48
2021/01/08 07:03:36;;;;;;;29.85;12.48;;;;;;;1.28;90.27;98990.38;3467807;28;20054;-47
2021/01/08 07:05:20;;;;;;;29.67;12.98;;;;;;;1.27;90.05;98997.16;3467501;28;20053;-48
2021/01/08 07:07:04;;;;;;;40.83;15.90;;;;;;;1.24;90.11;98994.47;3468622;28;20057;-48
2021/01/08 07:08:46;;;;;;;33.28;15.13;;;;;;;1.26;90.04;98997.97;3467441;28;20423;-48
2021/01/08 07:10:31;;;;;;;35.60;15.68;;;;;;;1.26;90.15;99003.06;3467453;28;20096;-48
2021/01/08 07:12:13;;;;;;;37.80;15.95;;;;;;;1.26;90.28;99004.78;3468368;28;20511;-48
2021/01/08 07:14:09;;;;;;;38.55;17.60;;;;;;;1.23;90.52;99005.53;3467877;28;20132;-48
2021/01/08 07:15:51;;;;;;;32.03;13.43;;;;;;;1.24;90.20;98998.72;3467613;28;20049;-48
2021/01/08 07:17:33;;;;;;;36.78;16.65;;;;;;;1.24;90.49;99007.25;3470249;28;20053;-48
2021/01/08 07:19:19;;;;;;;33.53;14.75;;;;;;;1.24;90.17;99014.94;3470765;28;20045;-48
2021/01/08 07:21:02;;;;;;;28.45;11.18;;;;;;;1.25;90.26;99011.56;3470122;28;20510;-47
2021/01/08 07:22:56;;;;;;;32.88;13.70;;;;;;;1.23;90.02;99007.19;3471389;28;20045;-48
2021/01/08 07:24:38;;;;;;;29.35;15.05;;;;;;;1.23;90.33;99010.66;3469975;28;20046;-48
2021/01/08 07:26:20;;;;;;;30.75;14.30;;;;;;;1.23;89.99;99005.53;3471248;28;20457;-46
2021/01/08 07:28:09;;;;;;;36.80;16.48;;;;;;;1.24;89.91;99006.41;3470284;28;20058;-46
2021/01/08 07:29:51;;;;;;;40.35;17.15;;;;;;;1.24;90.33;99009.81;3470240;28;20073;-47
2021/01/08 07:31:34;;;;;;;38.05;16.58;;;;;;;1.23;90.33;99017.41;3470560;28;20053;-48
2021/01/08 07:33:16;;;;;;;29.95;13.88;;;;;;;1.26;90.38;99023.50;3470030;28;20053;-49
2021/01/08 07:34:58;;;;;;;39.05;16.67;;;;;;;1.27;90.50;99032.06;3469773;28;20050;-49
2021/01/08 07:36:41;;;;;;;30.58;13.85;;;;;;;1.27;90.22;99035.50;3471385;28;20119;-48
2021/01/08 07:38:32;;;;;;;34.42;17.23;;;;;;;1.29;90.30;99038.13;3469746;28;20061;-47
2021/01/08 07:40:17;;;;;;;40.47;18.10;;;;;;;1.30;89.90;99042.41;3469955;28;20046;-45
2021/01/08 07:41:59;;;;;;;32.60;14.88;;;;;;;1.31;90.09;99026.25;3469429;28;20049;-45
2021/01/08 07:43:41;;;;;;;31.65;14.02;;;;;;;1.31;89.81;99029.69;3469617;28;20461;-45
2021/01/08 07:45:23;;;;;;;22.83;9.93;;;;;;;1.32;89.87;99041.66;3469770;28;20107;-46
2021/01/08 07:47:24;;;;;;;27.58;13.40;;;;;;;1.33;89.57;99032.31;3457385;28;20053;-45
2021/01/08 07:49:07;;;;;;;31.73;13.55;;;;;;;1.33;89.75;99048.50;3469389;28;20043;-45
2021/01/08 07:50:54;;;;;;;36.20;15.38;;;;;;;1.31;89.56;99032.25;3469930;28;20046;-46
2021/01/08 07:52:38;;;;;;;35.28;15.07;;;;;;;1.33;90.07;99038.28;3470738;28;20064;-48
2021/01/08 07:54:53;;;;;;;31.38;15.02;;;;;;;1.33;89.61;99048.50;3470331;28;20052;-48
2021/01/08 07:56:35;;;;;;;31.25;11.20;;;;;;;1.34;89.32;99057.06;3469647;28;20528;-48
2021/01/08 07:58:23;;;;;;;28.20;12.68;;;;;;;1.34;89.59;99047.69;3470244;28;20049;-48
2021/01/08 08:00:26;;;;;;;29.98;12.52;;;;;;;1.34;89.60;99041.72;3468010;28;20053;-49
2021/01/08 08:02:07;;;;;;;30.48;15.60;;;;;;;1.34;89.28;99044.28;3469592;28;20083;-48
2021/01/08 08:03:57;;;;;;;31.02;14.07;;;;;;;1.33;89.56;99055.31;3470168;28;20053;-45
2021/01/08 08:05:44;;;;;;;29.95;15.02;;;;;;;1.33;89.42;99058.72;3470139;28;20115;-48
2021/01/08 08:07:25;;;;;;;32.70;12.68;;;;;;;1.33;89.32;99058.72;3469841;28;20080;-45
2021/01/08 08:09:11;;;;;;;28.20;13.32;;;;;;;1.32;89.44;99062.09;3470327;28;20077;-45